Time;durP1;ratioP1;P1;durP2;ratioP2;P2;SDS_P1;SDS_P2;PMS_P1;PMS_P2;Temp;Humidity;BMP_temperature;BMP_pressure;BME280_temperature;BME280_humidity;BME280_pressure;Samples;Min_cycle;Max_cycle;Signal;HPM_P1;HPM_P2
2021/09/24 00:01:09;;;;;;;21.17;4.85;;;13.30;95.10;;;;;;5064791;28;20062;-68
2021/09/24 00:03:36;;;;;;;18.23;3.92;;;13.30;95.20;;;;;;5062537;28;20090;-67
2021/09/24 00:06:02;;;;;;;28.55;4.95;;;13.30;95.20;;;;;;5059511;28;20068;-68
2021/09/24 00:08:28;;;;;;;17.15;4.15;;;13.30;95.20;;;;;;5063120;28;20024;-67
2021/09/24 00:10:55;;;;;;;17.45;4.03;;;13.20;95.40;;;;;;5063669;28;20036;-67
2021/09/24 00:13:21;;;;;;;19.92;4.00;;;13.30;95.40;;;;;;5062942;28;20263;-68
2021/09/24 00:15:47;;;;;;;21.80;3.80;;;13.20;95.50;;;;;;5061558;28;20047;-67
2021/09/24 00:18:13;;;;;;;25.67;4.43;;;13.20;95.60;;;;;;5066523;28;20039;-67
2021/09/24 00:20:38;;;;;;;25.88;4.40;;;13.20;95.60;;;;;;5062687;28;20577;-68
2021/09/24 00:23:04;;;;;;;28.80;4.55;;;13.20;95.70;;;;;;5065713;28;20068;-67
2021/09/24 00:25:31;;;;;;;22.90;3.95;;;13.20;95.80;;;;;;5060987;28;20025;-68
2021/09/24 00:27:58;;;;;;;18.45;4.05;;;13.10;95.90;;;;;;5062501;28;20025;-67
2021/09/24 00:30:24;;;;;;;25.83;4.55;;;13.10;96.20;;;;;;5065301;28;20028;-68
2021/09/24 00:32:50;;;;;;;27.27;4.72;;;13.10;96.30;;;;;;5064775;28;20024;-68
2021/09/24 00:35:16;;;;;;;24.05;4.65;;;13.00;96.30;;;;;;5062508;28;20016;-67
2021/09/24 00:37:41;;;;;;;20.55;3.90;;;13.00;96.50;;;;;;5064789;28;20158;-68
2021/09/24 00:40:10;;;;;;;20.23;3.92;;;13.00;96.50;;;;;;5062672;28;20517;-68
2021/09/24 00:42:37;;;;;;;24.42;4.13;;;13.00;96.50;;;;;;5061838;28;20472;-68
2021/09/24 00:45:04;;;;;;;17.95;4.30;;;12.90;96.50;;;;;;5062014;28;20046;-68
2021/09/24 00:47:30;;;;;;;20.48;4.40;;;12.90;96.50;;;;;;5061662;28;20033;-68
2021/09/24 00:49:56;;;;;;;24.77;3.70;;;12.90;96.50;;;;;;5062369;28;20542;-68
2021/09/24 00:52:22;;;;;;;21.33;4.35;;;13.00;96.60;;;;;;5061651;28;20044;-67
2021/09/24 00:54:50;;;;;;;21.55;3.92;;;13.00;96.70;;;;;;5064433;28;20398;-67
2021/09/24 00:57:17;;;;;;;24.15;4.70;;;12.90;96.70;;;;;;5065516;28;20047;-68
2021/09/24 00:59:43;;;;;;;29.85;4.82;;;13.00;96.70;;;;;;5066782;28;20059;-67
2021/09/24 01:02:09;;;;;;;21.35;4.15;;;12.90;96.70;;;;;;5068791;28;20478;-68
2021/09/24 01:04:35;;;;;;;16.30;3.13;;;13.00;96.80;;;;;;5066535;28;20036;-68
2021/09/24 01:07:02;;;;;;;27.00;4.38;;;13.00;96.70;;;;;;5063043;28;20030;-68
2021/09/24 01:09:29;;;;;;;20.15;4.07;;;13.00;96.60;;;;;;5066742;28;20021;-67
2021/09/24 01:11:55;;;;;;;24.13;5.10;;;13.00;96.60;;;;;;5068762;28;20115;-68
2021/09/24 01:14:21;;;;;;;24.63;4.78;;;13.00;96.60;;;;;;5064901;28;20162;-69
2021/09/24 01:16:47;;;;;;;24.90;4.95;;;12.90;96.60;;;;;;5067809;28;20387;-67
2021/09/24 01:19:13;;;;;;;24.20;4.40;;;12.90;96.50;;;;;;5068681;28;20025;-67
2021/09/24 01:21:42;;;;;;;32.83;4.55;;;12.90;96.50;;;;;;5068463;28;20025;-67
2021/09/24 01:24:09;;;;;;;22.42;4.30;;;12.90;96.50;;;;;;5066347;28;20032;-68
2021/09/24 01:26:35;;;;;;;19.85;4.47;;;12.90;96.50;;;;;;5064350;28;20040;-67
2021/09/24 01:29:01;;;;;;;25.45;4.60;;;12.90;96.50;;;;;;5066933;28;20158;-67
2021/09/24 01:31:27;;;;;;;20.67;4.63;;;12.80;96.50;;;;;;5072284;28;20021;-67
2021/09/24 01:33:53;;;;;;;20.95;4.68;;;12.80;96.50;;;;;;5069771;28;20020;-67
2021/09/24 01:36:18;;;;;;;23.65;4.38;;;12.90;96.60;;;;;;5067283;28;20028;-67
2021/09/24 01:38:44;;;;;;;28.90;4.18;;;12.90;96.60;;;;;;5068419;28;20682;-67
2021/09/24 01:41:10;;;;;;;25.27;4.60;;;12.90;96.50;;;;;;5066362;28;20029;-67
2021/09/24 01:43:36;;;;;;;23.48;4.28;;;12.90;96.50;;;;;;5066784;28;20028;-67
2021/09/24 01:46:04;;;;;;;25.27;4.10;;;12.80;96.60;;;;;;5066809;28;20029;-68
2021/09/24 01:48:30;;;;;;;13.13;3.08;;;12.80;96.70;;;;;;5067339;28;20032;-67
2021/09/24 01:50:56;;;;;;;21.33;3.90;;;12.80;96.90;;;;;;5067141;28;20512;-68
2021/09/24 01:53:22;;;;;;;28.52;5.18;;;12.80;97.00;;;;;;5067315;28;20029;-66
2021/09/24 01:55:48;;;;;;;17.98;3.40;;;12.80;97.10;;;;;;5066828;28;20031;-68
2021/09/24 01:58:15;;;;;;;22.85;3.80;;;12.80;97.10;;;;;;5065983;28;20036;-68
2021/09/24 02:00:41;;;;;;;22.30;4.20;;;12.80;97.30;;;;;;5066384;28;20490;-68
2021/09/24 02:03:07;;;;;;;19.50;4.43;;;12.80;97.30;;;;;;5065198;28;20064;-67
2021/09/24 02:05:32;;;;;;;24.30;4.15;;;12.80;97.40;;;;;;5066867;28;20071;-68
2021/09/24 02:07:58;;;;;;;19.83;4.05;;;12.70;97.40;;;;;;5065455;28;20016;-68
2021/09/24 02:10:24;;;;;;;27.33;4.28;;;12.70;97.50;;;;;;5065721;28;20509;-67
2021/09/24 02:12:50;;;;;;;23.48;4.55;;;12.70;97.60;;;;;;5065533;28;20032;-67
2021/09/24 02:15:15;;;;;;;25.75;5.05;;;12.70;97.70;;;;;;5064767;28;20029;-67
2021/09/24 02:17:42;;;;;;;17.27;4.18;;;12.70;97.70;;;;;;5066266;28;20024;-67
2021/09/24 02:20:09;;;;;;;21.88;4.28;;;12.60;97.70;;;;;;5066381;28;20115;-67
2021/09/24 02:22:35;;;;;;;26.15;5.03;;;12.60;97.70;;;;;;5066443;28;20097;-68
2021/09/24 02:25:01;;;;;;;22.35;3.88;;;12.60;97.80;;;;;;5067418;28;20025;-67
2021/09/24 02:27:27;;;;;;;20.15;3.55;;;12.60;97.80;;;;;;5064086;28;20036;-67
2021/09/24 02:29:52;;;;;;;26.05;4.75;;;12.50;97.80;;;;;;5066877;28;20021;-68
2021/09/24 02:32:18;;;;;;;29.70;5.03;;;12.50;98.00;;;;;;5066096;28;20021;-68
2021/09/24 02:34:44;;;;;;;21.75;4.38;;;12.50;98.00;;;;;;5067723;28;20028;-68
2021/09/24 02:37:09;;;;;;;31.20;5.22;;;12.40;98.00;;;;;;5066332;28;20029;-65
2021/09/24 02:39:35;;;;;;;17.80;3.10;;;12.40;98.00;;;;;;5066627;28;20029;-67
2021/09/24 02:42:01;;;;;;;18.98;4.72;;;12.40;98.00;;;;;;5064962;28;20048;-67
2021/09/24 02:44:27;;;;;;;21.02;3.58;;;12.40;98.10;;;;;;5065884;28;20055;-67
2021/09/24 02:46:52;;;;;;;25.85;5.32;;;12.40;98.10;;;;;;5065047;28;20549;-67
2021/09/24 02:49:18;;;;;;;30.38;4.85;;;12.30;98.20;;;;;;5064425;28;20031;-68
2021/09/24 02:51:44;;;;;;;28.23;4.72;;;12.30;98.20;;;;;;5065647;28;20032;-68
2021/09/24 02:54:09;;;;;;;25.67;4.55;;;12.30;98.40;;;;;;5066153;28;20032;-66
2021/09/24 02:56:35;;;;;;;27.17;4.30;;;12.20;98.30;;;;;;5066908;28;20028;-68
2021/09/24 02:59:01;;;;;;;25.25;5.47;;;12.20;98.60;;;;;;5065288;28;20041;-66
2021/09/24 03:01:26;;;;;;;21.05;3.88;;;12.10;98.70;;;;;;5066719;28;20089;-67
2021/09/24 03:03:52;;;;;;;19.98;4.30;;;12.10;98.80;;;;;;5064574;28;20081;-67
2021/09/24 03:06:18;;;;;;;18.27;3.58;;;12.10;98.70;;;;;;5065587;28;20036;-67
2021/09/24 03:08:43;;;;;;;20.83;4.13;;;12.10;98.70;;;;;;5066275;28;20032;-67
2021/09/24 03:11:09;;;;;;;24.95;4.55;;;12.10;98.70;;;;;;5065321;28;20029;-67
2021/09/24 03:13:35;;;;;;;24.58;4.60;;;12.00;99.00;;;;;;5067000;28;20036;-68
2021/09/24 03:16:01;;;;;;;21.83;3.80;;;12.00;98.90;;;;;;5066303;28;20040;-67
2021/09/24 03:18:27;;;;;;;22.75;5.10;;;12.00;98.90;;;;;;5067509;28;20040;-67
2021/09/24 03:20:53;;;;;;;22.58;4.20;;;12.00;98.90;;;;;;5066609;28;20028;-68
2021/09/24 03:23:20;;;;;;;23.05;4.28;;;12.00;98.90;;;;;;5065504;28;20033;-68
2021/09/24 03:25:47;;;;;;;19.33;3.80;;;12.00;98.80;;;;;;5064121;28;20036;-68
2021/09/24 03:28:13;;;;;;;33.45;4.75;;;12.10;98.80;;;;;;5065886;28;20027;-68
2021/09/24 03:30:39;;;;;;;17.50;3.35;;;12.10;98.80;;;;;;5063958;28;20021;-67
2021/09/24 03:33:05;;;;;;;20.33;3.58;;;12.10;98.80;;;;;;5064652;28;20448;-68
2021/09/24 03:35:31;;;;;;;21.02;3.75;;;12.00;98.80;;;;;;5065573;28;20028;-68
2021/09/24 03:37:56;;;;;;;18.65;4.65;;;12.00;98.80;;;;;;5064391;28;20421;-67
2021/09/24 03:40:22;;;;;;;23.75;3.70;;;12.10;98.90;;;;;;5066358;28;20075;-67
2021/09/24 03:42:47;;;;;;;23.95;4.38;;;12.10;98.90;;;;;;5063739;28;20032;-67
2021/09/24 03:45:13;;;;;;;28.13;4.28;;;12.10;99.00;;;;;;5065189;28;20107;-68
2021/09/24 03:47:39;;;;;;;22.00;4.03;;;12.10;98.90;;;;;;5065252;28;20090;-67
2021/09/24 03:50:06;;;;;;;22.05;3.88;;;12.10;99.00;;;;;;5065027;28;20123;-67
2021/09/24 03:52:32;;;;;;;21.20;3.80;;;12.10;99.00;;;;;;5063703;28;20035;-67
2021/09/24 03:54:57;;;;;;;24.10;4.03;;;12.10;99.00;;;;;;5064524;28;20024;-68
2021/09/24 03:57:23;;;;;;;25.42;4.63;;;12.10;99.10;;;;;;5065086;28;20040;-68
2021/09/24 03:59:49;;;;;;;23.95;4.57;;;12.10;99.10;;;;;;5064410;28;20036;-67
2021/09/24 04:02:14;;;;;;;26.40;4.70;;;12.10;99.00;;;;;;5062794;28;20047;-67
2021/09/24 04:04:40;;;;;;;23.08;3.70;;;12.00;99.00;;;;;;5063412;28;20021;-67
2021/09/24 04:07:06;;;;;;;28.30;4.63;;;12.00;99.10;;;;;;5064363;28;20121;-67
2021/09/24 04:09:32;;;;;;;15.18;3.20;;;12.00;99.30;;;;;;5063827;28;20024;-67
2021/09/24 04:11:58;;;;;;;24.90;4.55;;;12.00;99.30;;;;;;5064367;28;20048;-67
2021/09/24 04:14:23;;;;;;;20.58;3.40;;;12.00;99.40;;;;;;5065873;28;20055;-67
2021/09/24 04:16:49;;;;;;;25.85;4.53;;;12.00;99.40;;;;;;5063675;28;20032;-68
2021/09/24 04:19:15;;;;;;;25.02;4.78;;;12.00;99.50;;;;;;5065223;28;20048;-68
2021/09/24 04:21:41;;;;;;;23.17;4.55;;;11.90;99.50;;;;;;5063655;28;20028;-68
2021/09/24 04:24:07;;;;;;;29.80;4.68;;;11.90;99.50;;;;;;5064691;28;20089;-68
2021/09/24 04:26:33;;;;;;;25.92;3.88;;;11.90;99.50;;;;;;5061925;28;20032;-67
2021/09/24 04:29:00;;;;;;;20.73;4.05;;;11.90;99.50;;;;;;5065545;28;20095;-67
2021/09/24 04:31:28;;;;;;;24.48;3.95;;;11.90;99.50;;;;;;5067121;28;20091;-67
2021/09/24 04:33:53;;;;;;;18.17;3.95;;;11.90;99.60;;;;;;5067971;28;20047;-68
2021/09/24 04:36:19;;;;;;;24.65;4.28;;;11.90;99.60;;;;;;5067035;28;20202;-68
2021/09/24 04:38:45;;;;;;;25.80;4.65;;;11.90;99.50;;;;;;5066441;28;20033;-68
2021/09/24 04:41:11;;;;;;;21.25;4.15;;;12.00;99.60;;;;;;5067706;28;20514;-67
2021/09/24 04:43:37;;;;;;;23.45;4.22;;;11.90;99.60;;;;;;5067366;28;20064;-67
2021/09/24 04:46:02;;;;;;;29.30;4.95;;;11.90;99.70;;;;;;5068520;28;20036;-67
2021/09/24 04:48:31;;;;;;;17.33;3.47;;;11.90;99.60;;;;;;5068031;28;20055;-67
2021/09/24 04:50:57;;;;;;;25.75;4.78;;;11.90;99.70;;;;;;5069049;28;20391;-68
2021/09/24 04:53:22;;;;;;;14.60;3.83;;;11.90;99.60;;;;;;5066141;28;20025;-67
2021/09/24 04:55:48;;;;;;;22.05;4.25;;;11.90;99.70;;;;;;5069325;28;20028;-68
2021/09/24 04:58:14;;;;;;;22.60;3.97;;;12.00;99.70;;;;;;5066105;28;20044;-67
2021/09/24 05:00:39;;;;;;;15.50;3.15;;;12.00;99.60;;;;;;5071622;28;20470;-68
2021/09/24 05:03:05;;;;;;;17.67;4.35;;;11.90;99.70;;;;;;5053489;28;20039;-68
2021/09/24 05:05:31;;;;;;;21.23;3.80;;;11.90;99.70;;;;;;5068946;28;20113;-68
2021/09/24 05:07:56;;;;;;;20.98;5.00;;;11.90;99.70;;;;;;5072246;28;20032;-67
2021/09/24 05:10:22;;;;;;;22.63;4.22;;;11.90;99.70;;;;;;5070245;28;20024;-68
2021/09/24 05:12:48;;;;;;;16.08;3.13;;;11.90;99.80;;;;;;5069345;28;20033;-68
2021/09/24 05:15:13;;;;;;;21.42;3.70;;;12.00;99.80;;;;;;5069723;28;20029;-68
2021/09/24 05:17:40;;;;;;;24.48;3.83;;;11.90;99.80;;;;;;5069722;28;20024;-67
2021/09/24 05:20:07;;;;;;;19.60;3.22;;;11.90;99.90;;;;;;5070130;28;20028;-69
2021/09/24 05:22:33;;;;;;;21.40;3.40;;;11.90;99.90;;;;;;5070851;28;20020;-70
2021/09/24 05:24:59;;;;;;;25.45;3.85;;;11.90;99.90;;;;;;5070308;28;20032;-70
2021/09/24 05:27:25;;;;;;;21.38;4.03;;;11.90;99.90;;;;;;5070308;28;20111;-70
2021/09/24 05:29:50;;;;;;;15.20;3.97;;;11.90;99.90;;;;;;5072237;28;20052;-69
2021/09/24 05:32:19;;;;;;;22.67;3.53;;;11.90;99.90;;;;;;5066147;28;20035;-69
2021/09/24 05:34:44;;;;;;;23.00;4.20;;;12.00;99.90;;;;;;5069864;28;20482;-70
2021/09/24 05:37:10;;;;;;;23.27;4.65;;;12.00;99.90;;;;;;5069236;28;20044;-67
2021/09/24 05:39:36;;;;;;;25.48;4.78;;;12.00;99.90;;;;;;5072253;28;20862;-67
2021/09/24 05:42:02;;;;;;;25.67;3.80;;;12.00;99.90;;;;;;5069910;28;20060;-68
2021/09/24 05:44:28;;;;;;;22.58;4.35;;;12.10;99.90;;;;;;5072341;28;20510;-67
2021/09/24 05:46:54;;;;;;;24.23;3.92;;;12.10;99.90;;;;;;5071542;28;20032;-68
2021/09/24 05:49:19;;;;;;;22.65;4.22;;;12.10;99.90;;;;;;5068505;28;20046;-68
2021/09/24 05:51:45;;;;;;;23.23;3.83;;;12.10;99.90;;;;;;5068988;28;20105;-68
2021/09/24 05:54:11;;;;;;;14.05;3.50;;;12.10;99.90;;;;;;5069532;28;20170;-67
2021/09/24 05:56:37;;;;;;;17.48;3.85;;;12.10;99.90;;;;;;5071354;28;20024;-68
2021/09/24 05:59:03;;;;;;;16.17;4.07;;;12.20;99.90;;;;;;5071103;28;20036;-68
2021/09/24 06:01:29;;;;;;;30.33;5.47;;;12.20;99.90;;;;;;5067998;28;20033;-67
2021/09/24 06:03:54;;;;;;;15.30;3.28;;;12.20;99.90;;;;;;5072078;28;20060;-68
2021/09/24 06:06:21;;;;;;;22.75;3.92;;;12.20;99.90;;;;;;5067777;28;20028;-68
2021/09/24 06:08:50;;;;;;;18.67;4.07;;;12.30;99.90;;;;;;5071613;28;20441;-68
2021/09/24 06:11:19;;;;;;;21.33;4.40;;;12.40;99.90;;;;;;5067370;28;20023;-66
2021/09/24 06:13:46;;;;;;;20.92;3.78;;;12.40;99.90;;;;;;5070837;28;20112;-68
2021/09/24 06:16:12;;;;;;;14.38;3.60;;;12.50;99.90;;;;;;5067495;28;20169;-66
2021/09/24 06:18:38;;;;;;;16.80;4.07;;;12.50;99.90;;;;;;5068077;28;20470;-67
2021/09/24 06:21:04;;;;;;;25.92;4.43;;;12.50;99.90;;;;;;5069946;28;20058;-67
2021/09/24 06:23:31;;;;;;;20.52;4.40;;;12.60;99.90;;;;;;5070555;28;20371;-67
2021/09/24 06:26:00;;;;;;;21.33;3.78;;;12.60;99.90;;;;;;5063702;28;20040;-66
2021/09/24 06:28:28;;;;;;;18.65;4.15;;;12.60;99.90;;;;;;5064741;28;20616;-69
2021/09/24 06:30:54;;;;;;;27.27;3.75;;;12.60;99.90;;;;;;5069040;28;20020;-67
2021/09/24 06:33:19;;;;;;;14.32;3.33;;;12.60;99.90;;;;;;5064654;28;20119;-67
2021/09/24 06:35:45;;;;;;;20.85;4.20;;;12.70;99.90;;;;;;5065043;28;20048;-68
2021/09/24 06:38:11;;;;;;;16.35;3.58;;;12.70;99.90;;;;;;5068250;28;20566;-68
2021/09/24 06:40:36;;;;;;;19.75;4.78;;;12.80;99.90;;;;;;5068695;28;20064;-68
2021/09/24 06:43:02;;;;;;;14.85;4.30;;;12.80;99.90;;;;;;5069258;28;20055;-69
2021/09/24 06:45:28;;;;;;;19.13;4.25;;;12.90;99.90;;;;;;5070096;28;20025;-69
2021/09/24 06:47:54;;;;;;;20.80;3.63;;;12.90;99.90;;;;;;5065441;28;20528;-67
2021/09/24 06:50:20;;;;;;;17.17;3.90;;;12.90;99.90;;;;;;5056756;28;20032;-68
2021/09/24 06:52:46;;;;;;;17.02;4.20;;;12.90;99.90;;;;;;5064336;28;20032;-68
2021/09/24 06:55:13;;;;;;;14.07;3.63;;;12.90;99.90;;;;;;5066714;28;20024;-68
2021/09/24 06:57:39;;;;;;;15.35;3.25;;;13.00;99.90;;;;;;5067094;28;20372;-68
2021/09/24 07:00:06;;;;;;;21.38;4.00;;;13.00;99.90;;;;;;5067461;28;20043;-69
2021/09/24 07:02:33;;;;;;;10.85;2.83;;;13.00;99.90;;;;;;5065762;28;20038;-68
2021/09/24 07:04:59;;;;;;;12.50;3.17;;;13.00;99.90;;;;;;5067186;28;20024;-69
2021/09/24 07:07:24;;;;;;;11.10;3.10;;;13.00;99.90;;;;;;5064845;28;20058;-68
2021/09/24 07:09:50;;;;;;;13.02;3.42;;;13.10;99.90;;;;;;5064435;28;20147;-68
2021/09/24 07:12:16;;;;;;;14.38;3.05;;;13.10;99.90;;;;;;5065115;28;20032;-67
2021/09/24 07:14:41;;;;;;;10.15;3.10;;;13.10;99.90;;;;;;5066750;28;20109;-69
2021/09/24 07:17:08;;;;;;;13.07;2.85;;;13.20;99.90;;;;;;5068380;28;20067;-69
2021/09/24 07:19:35;;;;;;;10.23;3.22;;;13.30;99.90;;;;;;5063688;28;20040;-69
2021/09/24 07:22:01;;;;;;;14.30;3.22;;;13.30;99.90;;;;;;5067611;28;20032;-68
2021/09/24 07:24:27;;;;;;;23.23;4.47;;;13.40;99.90;;;;;;5065109;28;20539;-67
2021/09/24 07:26:53;;;;;;;15.60;3.35;;;13.50;99.90;;;;;;5067007;28;20103;-67
2021/09/24 07:29:19;;;;;;;13.00;3.55;;;13.50;99.90;;;;;;5063342;28;20137;-68
2021/09/24 07:31:44;;;;;;;19.65;3.83;;;13.60;99.90;;;;;;5063326;28;20020;-68
2021/09/24 07:34:10;;;;;;;19.15;3.20;;;13.60;99.90;;;;;;5063349;28;20033;-67
2021/09/24 07:36:36;;;;;;;10.73;3.25;;;13.60;99.90;;;;;;5065988;28;20104;-67
2021/09/24 07:39:02;;;;;;;17.55;3.17;;;13.70;99.90;;;;;;5065328;28;20028;-66
2021/09/24 07:41:28;;;;;;;13.93;3.08;;;13.80;99.90;;;;;;5067369;28;20028;-67
2021/09/24 07:43:54;;;;;;;16.23;3.17;;;13.80;99.90;;;;;;5066941;28;20094;-67
2021/09/24 07:46:21;;;;;;;10.73;3.38;;;13.90;99.90;;;;;;5065367;28;20039;-65
2021/09/24 07:48:47;;;;;;;11.30;3.22;;;13.90;99.90;;;;;;5067070;28;20044;-67
2021/09/24 07:51:14;;;;;;;9.05;2.95;;;14.00;99.90;;;;;;5065313;28;20048;-67
2021/09/24 07:53:40;;;;;;;8.25;2.58;;;14.10;99.90;;;;;;5066078;28;20479;-66
2021/09/24 07:56:07;;;;;;;11.18;2.70;;;14.10;99.90;;;;;;5065713;28;20043;-66
2021/09/24 07:58:33;;;;;;;13.15;3.70;;;14.20;99.90;;;;;;5059693;28;20033;-68
2021/09/24 08:00:59;;;;;;;10.40;2.83;;;14.30;99.90;;;;;;5065420;28;20098;-73
2021/09/24 08:03:25;;;;;;;11.55;3.00;;;14.30;99.90;;;;;;5060191;28;20085;-73
2021/09/24 08:05:51;;;;;;;12.18;3.50;;;14.40;99.90;;;;;;5061484;28;20040;-67
2021/09/24 08:08:17;;;;;;;11.70;2.47;;;14.40;99.90;;;;;;5060025;28;20021;-67
2021/09/24 08:10:42;;;;;;;11.77;2.60;;;14.60;99.90;;;;;;5064428;28;20025;-67
2021/09/24 08:13:08;;;;;;;10.43;3.40;;;14.60;99.90;;;;;;5062009;28;20036;-68
2021/09/24 08:15:35;;;;;;;7.95;2.80;;;14.70;99.90;;;;;;5064841;28;20017;-68
2021/09/24 08:18:01;;;;;;;15.55;3.08;;;14.80;99.90;;;;;;5066163;28;20031;-67
2021/09/24 08:20:27;;;;;;;12.90;2.40;;;14.80;99.90;;;;;;5067011;28;20017;-67
2021/09/24 08:22:52;;;;;;;10.85;2.70;;;14.90;99.90;;;;;;5065069;28;20032;-68
2021/09/24 08:25:20;;;;;;;10.93;3.15;;;14.90;99.90;;;;;;5066138;28;20043;-68
2021/09/24 08:27:46;;;;;;;10.68;2.60;;;14.90;99.90;;;;;;5063790;28;20036;-66
2021/09/24 08:30:15;;;;;;;6.93;2.45;;;15.00;99.90;;;;;;5063940;28;20142;-67
2021/09/24 08:32:41;;;;;;;11.05;2.97;;;15.10;99.90;;;;;;5064506;28;20089;-68
2021/09/24 08:35:10;;;;;;;10.15;2.28;;;15.10;99.90;;;;;;5066007;28;20057;-68
2021/09/24 08:37:37;;;;;;;8.98;2.40;;;15.20;99.90;;;;;;5065259;28;20043;-68
2021/09/24 08:40:05;;;;;;;10.13;1.80;;;15.20;99.90;;;;;;5065771;28;20044;-67
2021/09/24 08:42:31;;;;;;;12.00;2.42;;;15.20;99.90;;;;;;5065964;28;20028;-68
2021/09/24 08:44:57;;;;;;;10.32;2.67;;;15.20;99.90;;;;;;5064722;28;20035;-68
2021/09/24 08:47:24;;;;;;;11.60;2.63;;;15.20;99.90;;;;;;5065757;28;20048;-68
2021/09/24 08:49:50;;;;;;;14.23;3.50;;;15.20;99.90;;;;;;5066323;28;20379;-68
2021/09/24 08:52:15;;;;;;;8.88;3.03;;;15.20;99.90;;;;;;5067870;28;20032;-68
2021/09/24 08:54:41;;;;;;;13.00;3.58;;;15.30;99.90;;;;;;5066865;28;20163;-68
2021/09/24 08:57:11;;;;;;;11.57;3.50;;;15.30;99.90;;;;;;5067247;28;20037;-68
2021/09/24 08:59:37;;;;;;;8.70;3.85;;;15.40;99.90;;;;;;5063890;28;20036;-68
2021/09/24 09:02:06;;;;;;;10.85;3.47;;;15.40;99.90;;;;;;5063501;28;20431;-68
2021/09/24 09:04:33;;;;;;;14.10;3.75;;;15.40;99.90;;;;;;5067006;28;20490;-68
2021/09/24 09:07:25;;;;;;;11.68;3.35;;;15.40;99.90;;;;;;5065787;28;20036;-68
2021/09/24 09:09:52;;;;;;;12.18;3.42;;;15.40;99.90;;;;;;5065080;28;20048;-68
2021/09/24 09:12:21;;;;;;;9.55;3.13;;;15.40;99.90;;;;;;5066676;28;20020;-68
2021/09/24 09:15:08;;;;;;;7.38;2.83;;;15.50;99.90;;;;;;5059735;28;20037;-67
2021/09/24 09:17:50;;;;;;;6.07;2.30;;;15.60;99.90;;;;;;5066682;28;20165;-67
2021/09/24 09:20:19;;;;;;;11.95;3.00;;;15.60;99.90;;;;;;5059406;28;20037;-69
2021/09/24 09:22:58;;;;;;;10.43;2.50;;;15.60;99.90;;;;;;5063074;28;20115;-68
2021/09/24 09:25:31;;;;;;;7.30;2.38;;;15.60;99.90;;;;;;5068333;28;20478;-68
2021/09/24 09:27:59;;;;;;;6.72;2.45;;;15.60;99.90;;;;;;5064007;28;20032;-68
2021/09/24 09:30:26;;;;;;;10.32;2.40;;;15.60;99.90;;;;;;5069228;28;20032;-67
2021/09/24 09:33:08;;;;;;;9.10;2.35;;;15.70;99.90;;;;;;5065555;28;20378;-68
2021/09/24 09:35:55;;;;;;;8.80;2.28;;;15.70;99.90;;;;;;5061642;28;20291;-68
2021/09/24 09:38:27;;;;;;;10.00;2.30;;;15.70;99.90;;;;;;5065747;28;20032;-69
2021/09/24 09:41:05;;;;;;;8.52;2.13;;;15.70;99.90;;;;;;5067895;28;20028;-69
2021/09/24 09:43:34;;;;;;;8.18;2.40;;;15.70;99.90;;;;;;5067227;28;20386;-68
2021/09/24 09:46:24;;;;;;;11.30;2.45;;;15.80;99.90;;;;;;5067577;28;20064;-67
2021/09/24 09:49:04;;;;;;;7.95;2.20;;;15.90;99.90;;;;;;5065617;28;20498;-68
2021/09/24 09:51:31;;;;;;;9.37;2.70;;;16.00;99.90;;;;;;5064169;28;20035;-68
2021/09/24 09:53:57;;;;;;;5.45;2.35;;;16.00;99.90;;;;;;5058055;28;20271;-68
2021/09/24 09:56:49;;;;;;;11.35;2.90;;;16.10;99.90;;;;;;5069462;28;20562;-68
2021/09/24 09:59:32;;;;;;;10.25;3.15;;;16.00;99.90;;;;;;5068888;28;20644;-68
2021/09/24 10:02:37;;;;;;;9.70;3.22;;;16.00;99.90;;;;;;5068174;28;20579;-68
2021/09/24 10:05:03;;;;;;;5.95;2.20;;;16.10;99.90;;;;;;5062840;28;20670;-68
2021/09/24 10:07:36;;;;;;;7.63;2.67;;;16.10;99.90;;;;;;5063839;28;20028;-68
2021/09/24 10:10:13;;;;;;;12.77;2.42;;;16.10;99.90;;;;;;5065720;28;20024;-67
2021/09/24 10:12:40;;;;;;;9.52;2.83;;;16.20;99.90;;;;;;5069703;28;20025;-68
2021/09/24 10:15:08;;;;;;;7.65;2.50;;;16.20;99.90;;;;;;5068454;28;20473;-67
2021/09/24 10:17:34;;;;;;;7.97;2.55;;;16.20;99.90;;;;;;5065736;28;20020;-69
2021/09/24 10:20:00;;;;;;;6.68;2.10;;;16.20;99.90;;;;;;5065202;28;20051;-69
2021/09/24 10:22:26;;;;;;;8.10;2.13;;;16.20;99.90;;;;;;5068547;28;20379;-69
2021/09/24 10:24:53;;;;;;;9.20;2.28;;;16.20;99.90;;;;;;5066607;28;20115;-69
2021/09/24 10:27:25;;;;;;;6.97;2.25;;;16.10;99.90;;;;;;5062520;28;20033;-68
2021/09/24 10:29:52;;;;;;;5.93;2.13;;;16.10;99.90;;;;;;5063455;28;20048;-67
2021/09/24 10:32:22;;;;;;;5.82;2.17;;;16.00;99.90;;;;;;5067151;28;20028;-69
2021/09/24 10:35:03;;;;;;;6.28;2.03;;;16.00;99.90;;;;;;5063195;28;20021;-69
2021/09/24 10:37:31;;;;;;;8.77;2.75;;;16.00;99.90;;;;;;5063165;28;20030;-67
2021/09/24 10:39:59;;;;;;;10.65;2.90;;;16.00;99.90;;;;;;5067320;28;20691;-67
2021/09/24 10:42:34;;;;;;;10.45;2.40;;;16.00;99.90;;;;;;5067398;28;20025;-67
2021/09/24 10:45:06;;;;;;;7.20;2.28;;;16.00;99.90;;;;;;5067075;28;20035;-68
2021/09/24 10:47:49;;;;;;;9.57;2.75;;;16.00;99.90;;;;;;5064965;28;20025;-68
2021/09/24 10:50:30;;;;;;;8.75;2.78;;;16.00;99.90;;;;;;5064227;28;20044;-68
2021/09/24 10:53:26;;;;;;;14.23;3.50;;;16.00;99.90;;;;;;5068778;28;20429;-68
2021/09/24 10:55:52;;;;;;;8.05;3.05;;;16.00;99.90;;;;;;5065140;28;20029;-68
2021/09/24 10:58:26;;;;;;;11.10;3.45;;;15.90;99.90;;;;;;5063701;28;20081;-68
2021/09/24 11:00:57;;;;;;;7.30;2.53;;;16.00;99.90;;;;;;5064549;28;20039;-68
2021/09/24 11:03:26;;;;;;;8.63;2.42;;;16.00;99.90;;;;;;5062523;28;20028;-69
2021/09/24 11:06:08;;;;;;;8.40;2.72;;;16.00;99.90;;;;;;5064975;28;20050;-69
2021/09/24 11:08:34;;;;;;;7.13;2.90;;;16.10;99.90;;;;;;5063895;28;20029;-68
2021/09/24 11:11:11;;;;;;;9.88;2.60;;;16.20;99.90;;;;;;5065555;28;20093;-67
2021/09/24 11:13:42;;;;;;;5.68;2.20;;;16.20;99.90;;;;;;5063464;28;20031;-68
2021/09/24 11:16:14;;;;;;;4.70;2.35;;;16.20;99.90;;;;;;5062452;28;20032;-68
2021/09/24 11:18:57;;;;;;;11.65;3.33;;;16.30;99.90;;;;;;5065031;28;20051;-69
2021/09/24 11:21:32;;;;;;;5.75;2.45;;;16.40;99.90;;;;;;5065340;28;20039;-68
2021/09/24 11:24:01;;;;;;;5.85;2.55;;;16.40;99.90;;;;;;5066031;28;20112;-68
2021/09/24 11:26:32;;;;;;;8.23;3.33;;;16.40;99.90;;;;;;5061832;28;20032;-68
2021/09/24 11:29:07;;;;;;;;;;;16.40;99.90;;;;;;5061037;28;20119;-68
2021/09/24 11:32:01;;;;;;;7.38;2.72;;;16.30;99.90;;;;;;5066892;28;19916;-68
2021/09/24 11:34:39;;;;;;;11.32;3.53;;;16.30;99.90;;;;;;5064433;28;20036;-68
2021/09/24 11:37:07;;;;;;;11.60;3.80;;;16.30;99.90;;;;;;5064971;28;20032;-68
2021/09/24 11:39:34;;;;;;;9.73;3.33;;;16.30;99.90;;;;;;5063014;28;20406;-68
2021/09/24 11:42:14;;;;;;;10.57;3.58;;;16.30;99.90;;;;;;5059865;28;20036;-69
2021/09/24 11:44:48;;;;;;;16.93;4.97;;;16.40;99.90;;;;;;5061603;28;20094;-69
2021/09/24 11:47:36;;;;;;;11.80;3.67;;;16.40;99.90;;;;;;5065902;28;20101;-69
2021/09/24 11:50:22;;;;;;;9.95;3.42;;;16.50;99.90;;;;;;5062575;28;20146;-67
2021/09/24 11:52:52;;;;;;;11.60;3.67;;;16.60;99.90;;;;;;5065860;28;20100;-69
2021/09/24 11:55:30;;;;;;;15.05;4.68;;;16.70;99.90;;;;;;5064344;28;20028;-68
2021/09/24 11:58:08;;;;;;;8.07;3.50;;;16.80;99.90;;;;;;5062000;28;20033;-68
2021/09/24 12:00:36;;;;;;;7.72;3.15;;;16.90;99.90;;;;;;5061411;28;20035;-68
2021/09/24 12:03:29;;;;;;;11.30;3.60;;;17.10;99.90;;;;;;5060709;28;20040;-70
2021/09/24 12:06:02;;;;;;;7.35;3.20;;;17.20;99.90;;;;;;5062747;28;20033;-67
2021/09/24 12:08:32;;;;;;;8.73;4.43;;;17.30;99.90;;;;;;5064047;28;20025;-68
2021/09/24 12:11:12;;;;;;;11.13;2.97;;;17.30;99.90;;;;;;5068017;28;20037;-68
2021/09/24 12:13:53;;;;;;;9.65;3.72;;;17.40;99.90;;;;;;5064915;28;20035;-68
2021/09/24 12:16:20;;;;;;;7.97;3.65;;;17.40;99.90;;;;;;5067521;28;20033;-68
2021/09/24 12:18:55;;;;;;;11.15;3.50;;;17.40;99.90;;;;;;5067638;28;20039;-68
2021/09/24 12:21:22;;;;;;;12.52;3.58;;;17.40;99.80;;;;;;5065778;28;20039;-68
2021/09/24 12:23:48;;;;;;;8.80;3.38;;;17.40;99.80;;;;;;5065329;28;20082;-68
2021/09/24 12:26:15;;;;;;;6.43;3.13;;;17.40;99.90;;;;;;5067078;28;20104;-69
2021/09/24 12:29:00;;;;;;;7.72;3.75;;;17.40;99.90;;;;;;5066613;28;20051;-68
2021/09/24 12:31:35;;;;;;;7.40;3.70;;;17.40;99.90;;;;;;5066896;28;20429;-68
2021/09/24 12:34:01;;;;;;;9.50;3.97;;;17.40;99.80;;;;;;5065769;28;20032;-67
2021/09/24 12:36:26;;;;;;;11.38;4.18;;;17.40;99.70;;;;;;5066242;28;20094;-68
2021/09/24 12:38:52;;;;;;;10.05;3.85;;;17.40;99.50;;;;;;5062303;28;20407;-69
2021/09/24 12:41:18;;;;;;;10.20;3.40;;;17.50;99.60;;;;;;5059292;28;20039;-66
2021/09/24 12:43:46;;;;;;;7.30;2.72;;;17.50;99.60;;;;;;5064200;28;20031;-67